Etusivu
METAR-TAF:

METAR-TAF

Lentoasemat :

Kristiansandin lentoasema

Kristiansand, Norja

Leveyspiiri: 58-12N, Pituuspiiri: 008-05E, korkeus merenpinnasta: 1 m

Tämänhetkinen sää

Tämä raportti tehtiin 13 minuuttia sitten, kello 17.50 UTC
Tuuli 6 kn etelästä
Lämpötila 8°C
Kosteus 100%
Ilmanpaine 987 hPa
Näkyvyys: 1100 m
heikkoa sadetta, utua

METAR: ENCN 061750Z 19006KT 1100 R03/P2000N R21/P2000N -RA BR VV005 08/08 Q0987

Aika: 19:03 (18:03 UTC)

Sääennuste

Tämä raportti tehtiin 1 tunti ja 3 minuuttia sitten, kello 17.00 UTC
Ennuste voimassa 06. päivästä klo 18 UTC - 06. päivään klo 22 UTC
Tuuli 8 kn etelästä/lounaasta
Näkyvyys: 0600 m
200 ft:n korkeudessa
heikkoa tihkusadetta, sumua
Ajoittain
06. päivästä klo 18 UTC - 06. päivään klo 22 UTC
Näkyvyys: 4000 m
sadetta, tihkusadetta, utua

TAF: ENCN 061700Z 0618/0622 20008KT 0600 -DZ FG VV002 TEMPO 0618/0622 4000 RADZ BR

Säähavainnot ja -ennusteet yli 4000 lentoasemalta (METAR- ja TAF-raportit).

Käytössä olevat sääasemat on merkitty karttaan keltaisilla ja punaisilla pisteillä.

Aseta hiiri pisteen päälle nähdäksesi sääaseman nimen.

Klikkaa sitten nähdäksesi säähavainnot ja -ennusteet.

Kartan vaihtaminen: klikkaa mustalla rastilla varustettuja vihreitä pisteitä, niin voit zoomata sisään; viivalla varustettua vihreää pistettä, niin voit zoomata ulos tai vihreitä nuolia, niin pääset viereisille kartoille.


METAR-TAF: